Time;durP1;ratioP1;P1;durP2;ratioP2;P2;SDS_P1;SDS_P2;PMS_P1;PMS_P2;Temp;Humidity;BMP_temperature;BMP_pressure;BME280_temperature;BME280_humidity;BME280_pressure;Samples;Min_cycle;Max_cycle;Signal;HPM_P1;HPM_P2
2022/06/17 00:01:10;;;;;;;10.00;8.10;;;15.40;99.90;;;;;;10448013;28;20041;-82
2022/06/17 00:06:12;;;;;;;9.15;7.85;;;15.30;99.90;;;;;;10447876;28;20036;-82
2022/06/17 00:11:24;;;;;;;10.13;8.65;;;15.30;99.90;;;;;;10469076;28;20371;-82
2022/06/17 00:16:25;;;;;;;9.43;7.93;;;15.20;99.90;;;;;;10454378;28;20021;-83
2022/06/17 00:21:32;;;;;;;10.57;7.93;;;15.20;99.90;;;;;;10478612;28;20056;-82
2022/06/17 00:26:33;;;;;;;11.45;7.85;;;15.20;99.90;;;;;;10446791;28;20037;-82
2022/06/17 00:31:33;;;;;;;9.35;7.47;;;15.00;99.90;;;;;;10447327;28;20681;-83
2022/06/17 00:36:34;;;;;;;10.05;7.50;;;15.00;99.90;;;;;;10446910;28;20052;-83
2022/06/17 00:41:38;;;;;;;10.25;7.82;;;14.90;99.90;;;;;;10446727;28;20040;-82
2022/06/17 00:46:48;;;;;;;9.95;8.32;;;14.80;99.90;;;;;;10462948;28;20020;-85
2022/06/17 00:52:09;;;;;;;12.15;9.05;;;14.60;99.90;;;;;;10459073;28;20044;-83
2022/06/17 00:57:34;;;;;;;12.35;9.25;;;14.40;99.90;;;;;;10457619;28;20094;-82
2022/06/17 01:02:40;;;;;;;19.30;13.93;;;14.20;99.90;;;;;;10447623;28;20028;-84
2022/06/17 01:08:01;;;;;;;22.67;16.42;;;14.10;99.90;;;;;;10454789;28;20743;-82
2022/06/17 01:13:06;;;;;;;32.72;21.92;;;14.30;99.90;;;;;;10473079;28;20363;-84
2022/06/17 01:18:07;;;;;;;34.53;26.05;;;14.40;99.90;;;;;;10500422;28;20024;-82
2022/06/17 01:23:12;;;;;;;33.83;24.83;;;14.50;99.90;;;;;;10471776;28;20029;-85
2022/06/17 01:28:15;;;;;;;34.10;24.67;;;14.60;99.90;;;;;;10489114;28;20028;-85
2022/06/17 01:33:32;;;;;;;34.90;25.48;;;14.70;99.90;;;;;;10481319;28;20017;-81
2022/06/17 01:38:35;;;;;;;30.17;23.13;;;14.80;99.90;;;;;;10471263;28;20020;-84
2022/06/17 01:43:43;;;;;;;32.72;22.65;;;14.90;99.90;;;;;;10452925;28;20029;-84
2022/06/17 01:48:53;;;;;;;27.00;21.20;;;14.90;99.90;;;;;;10447246;28;20032;-82
2022/06/17 01:53:57;;;;;;;28.42;21.52;;;15.00;99.90;;;;;;10475802;28;20015;-82
2022/06/17 01:59:05;;;;;;;30.58;21.45;;;15.00;99.90;;;;;;10464333;28;20520;-82
2022/06/17 02:04:11;;;;;;;22.00;18.17;;;14.90;99.90;;;;;;10471219;28;20395;-84
2022/06/17 02:09:13;;;;;;;22.95;15.35;;;14.90;99.90;;;;;;10506402;28;20612;-84
2022/06/17 02:14:14;;;;;;;19.70;15.10;;;14.90;99.90;;;;;;10458790;28;20048;-82
2022/06/17 02:19:16;;;;;;;18.73;15.00;;;14.90;99.90;;;;;;10483781;28;20495;-85
2022/06/17 02:24:19;;;;;;;19.58;14.45;;;14.80;99.90;;;;;;10447225;28;20079;-82
2022/06/17 02:29:22;;;;;;;19.77;13.85;;;14.80;99.90;;;;;;10454761;28;20456;-81
2022/06/17 02:34:23;;;;;;;18.35;13.73;;;14.70;99.90;;;;;;10495848;28;20043;-82
2022/06/17 02:39:26;;;;;;;21.13;13.70;;;14.70;99.90;;;;;;10451555;28;20028;-81
2022/06/17 02:44:35;;;;;;;16.83;12.73;;;14.60;99.90;;;;;;10460630;28;20036;-80
2022/06/17 02:49:37;;;;;;;20.13;12.48;;;14.60;99.90;;;;;;10496172;28;20021;-81
2022/06/17 02:54:48;;;;;;;19.05;14.27;;;14.60;99.90;;;;;;10450284;28;20017;-82
2022/06/17 03:00:04;;;;;;;21.85;14.50;;;14.50;99.90;;;;;;10482364;28;20051;-83
2022/06/17 03:05:10;;;;;;;;;;;14.50;99.90;;;;;;10495490;28;20036;-84
2022/06/17 03:10:18;;;;;;;19.05;13.80;;;14.40;99.90;;;;;;10449755;28;20559;-86
2022/06/17 03:15:20;;;;;;;21.30;16.02;;;14.40;99.90;;;;;;10456361;28;20017;-83
2022/06/17 03:20:24;;;;;;;21.38;15.10;;;14.30;99.90;;;;;;10478603;28;20039;-84
2022/06/17 03:25:45;;;;;;;23.20;16.65;;;14.30;99.90;;;;;;10488687;28;20063;-86
2022/06/17 03:30:52;;;;;;;21.98;14.63;;;14.30;99.90;;;;;;10448736;28;20027;-84
2022/06/17 03:35:58;;;;;;;19.20;15.10;;;14.30;99.90;;;;;;10450019;28;20029;-84
2022/06/17 03:41:10;;;;;;;;;;;14.30;99.90;;;;;;10444949;28;20056;-84
2022/06/17 03:46:13;;;;;;;18.90;14.07;;;14.40;99.90;;;;;;10459427;28;20444;-85
2022/06/17 03:51:22;;;;;;;18.45;14.30;;;14.30;99.90;;;;;;10466374;28;20456;-83
2022/06/17 03:56:26;;;;;;;22.50;14.88;;;14.40;99.90;;;;;;10448368;28;20012;-82
2022/06/17 04:01:32;;;;;;;19.00;13.45;;;14.40;99.90;;;;;;10452665;28;20025;-82
2022/06/17 04:06:40;;;;;;;18.25;13.88;;;14.50;99.90;;;;;;10491306;28;20028;-82
2022/06/17 04:11:44;;;;;;;17.08;13.68;;;14.50;99.90;;;;;;10462140;28;20052;-81
2022/06/17 04:17:25;;;;;;;18.35;12.95;;;14.50;99.90;;;;;;10448496;28;20505;-84
2022/06/17 04:22:30;;;;;;;17.40;12.50;;;14.50;99.90;;;;;;10447156;28;20037;-82
2022/06/17 04:27:56;;;;;;;18.17;14.73;;;14.50;99.90;;;;;;10460716;28;20467;-83
2022/06/17 04:32:59;;;;;;;19.15;13.32;;;14.40;99.90;;;;;;10446943;28;20063;-82
2022/06/17 04:38:02;;;;;;;18.65;12.73;;;14.50;99.90;;;;;;10487515;28;20517;-82
2022/06/17 04:43:07;;;;;;;17.85;12.80;;;14.50;99.90;;;;;;10470009;28;20040;-83
2022/06/17 04:48:08;;;;;;;16.55;13.25;;;14.70;99.90;;;;;;10448156;28;20112;-82
2022/06/17 04:53:08;;;;;;;20.27;14.15;;;14.70;99.90;;;;;;10453873;28;20016;-82
2022/06/17 04:58:17;;;;;;;19.15;14.75;;;14.80;99.90;;;;;;10475396;28;20025;-82
2022/06/17 05:03:18;;;;;;;24.65;15.85;;;14.90;99.90;;;;;;10463726;28;20477;-82
2022/06/17 05:08:27;;;;;;;25.55;16.55;;;14.90;99.90;;;;;;10487476;28;20064;-82
2022/06/17 05:13:32;;;;;;;24.73;16.48;;;15.20;99.90;;;;;;10445958;28;20041;-81
2022/06/17 05:18:33;;;;;;;27.50;20.13;;;15.30;99.90;;;;;;10438537;28;20021;-82
2022/06/17 05:23:34;;;;;;;30.20;20.73;;;15.30;99.90;;;;;;10468434;28;20526;-82
2022/06/17 05:28:34;;;;;;;30.83;18.05;;;15.20;99.90;;;;;;10452834;28;20542;-82
2022/06/17 05:33:37;;;;;;;30.15;18.55;;;15.10;99.90;;;;;;10459787;28;20029;-82
2022/06/17 05:38:37;;;;;;;33.60;19.40;;;15.10;99.90;;;;;;10437541;28;20055;-85
2022/06/17 05:43:39;;;;;;;30.23;18.77;;;14.90;99.90;;;;;;10445746;28;20108;-81
2022/06/17 05:48:40;;;;;;;33.00;18.65;;;14.80;99.90;;;;;;10474368;28;20697;-82
2022/06/17 05:53:40;;;;;;;31.08;17.98;;;14.80;99.90;;;;;;10457548;28;20024;-82
2022/06/17 05:58:41;;;;;;;28.17;17.77;;;14.70;99.90;;;;;;10456299;28;20494;-81
2022/06/17 06:03:41;;;;;;;29.55;17.77;;;14.80;99.90;;;;;;10464354;28;20035;-81
2022/06/17 06:08:42;;;;;;;28.77;17.95;;;14.80;99.90;;;;;;10468178;28;20048;-84
2022/06/17 06:13:43;;;;;;;30.15;17.25;;;15.10;99.90;;;;;;10459450;28;20033;-83
2022/06/17 06:18:47;;;;;;;29.08;17.23;;;15.10;99.90;;;;;;10434110;28;20573;-82
2022/06/17 06:23:48;;;;;;;29.20;17.02;;;15.10;99.90;;;;;;10457517;28;20353;-81
2022/06/17 06:28:49;;;;;;;33.97;17.95;;;15.10;99.90;;;;;;10451593;28;20021;-85
2022/06/17 06:33:51;;;;;;;29.58;16.35;;;15.10;99.90;;;;;;10486741;28;20023;-83
2022/06/17 06:38:51;;;;;;;30.65;17.83;;;15.10;99.90;;;;;;10464581;28;20025;-82
2022/06/17 06:43:52;;;;;;;31.67;17.85;;;15.10;99.90;;;;;;10463923;28;20033;-82
2022/06/17 06:48:56;;;;;;;35.42;16.85;;;15.10;99.90;;;;;;10464857;28;20029;-81
2022/06/17 06:53:57;;;;;;;31.67;18.05;;;15.10;99.90;;;;;;10458506;28;20427;-84
2022/06/17 06:58:58;;;;;;;34.30;18.83;;;15.10;99.90;;;;;;10461347;28;20028;-84
2022/06/17 07:03:58;;;;;;;35.55;20.63;;;14.90;99.90;;;;;;10481884;28;20028;-83
2022/06/17 07:08:59;;;;;;;33.67;20.75;;;14.90;99.90;;;;;;10473464;28;20052;-83
2022/06/17 07:13:59;;;;;;;32.13;19.25;;;15.00;99.90;;;;;;10455202;28;20025;-83
2022/06/17 07:19:00;;;;;;;26.77;17.00;;;15.10;99.90;;;;;;10450347;28;20104;-82
2022/06/17 07:24:01;;;;;;;28.95;17.08;;;15.40;99.90;;;;;;10434515;28;20047;-83
2022/06/17 07:29:01;;;;;;;25.25;16.20;;;15.60;99.90;;;;;;10451046;28;20061;-83
2022/06/17 07:34:02;;;;;;;20.67;14.60;;;15.80;99.90;;;;;;10464566;28;20428;-84
2022/06/17 07:44:26;;;;;;;17.23;12.45;;;17.20;99.90;;;;;;10477957;28;20041;-84
2022/06/17 07:49:27;;;;;;;12.93;9.90;;;18.10;99.90;;;;;;10470423;28;20012;-86
2022/06/17 07:54:28;;;;;;;12.40;8.60;;;18.30;99.90;;;;;;10457692;28;20032;-84
2022/06/17 07:59:28;;;;;;;15.10;9.27;;;18.70;99.90;;;;;;10478650;28;20017;-86
2022/06/17 08:04:29;;;;;;;11.45;8.32;;;18.90;99.90;;;;;;10464095;28;20613;-84
2022/06/17 08:09:30;;;;;;;10.95;7.93;;;19.40;99.90;;;;;;10470439;28;20049;-85
2022/06/17 08:14:31;;;;;;;9.82;8.32;;;20.10;99.90;;;;;;10458806;28;20048;-82
2022/06/17 08:19:32;;;;;;;10.77;8.02;;;20.00;99.90;;;;;;10454514;28;20029;-83
2022/06/17 08:24:32;;;;;;;9.40;6.55;;;20.60;99.90;;;;;;10456165;28;20032;-83
2022/06/17 08:29:33;;;;;;;9.45;6.95;;;21.00;99.90;;;;;;10451462;28;20037;-82
2022/06/17 08:34:33;;;;;;;6.03;5.43;;;20.40;99.90;;;;;;10464735;28;20372;-87
2022/06/17 08:39:34;;;;;;;8.93;6.18;;;20.10;99.90;;;;;;10466122;28;20025;-84
2022/06/17 08:44:50;;;;;;;8.43;6.07;;;20.60;99.90;;;;;;10446831;28;20048;-83
2022/06/17 08:50:35;;;;;;;9.45;5.43;;;20.90;99.90;;;;;;10492924;28;20052;-82
2022/06/17 08:55:39;;;;;;;7.63;4.30;;;20.50;99.90;;;;;;10387606;28;20044;-84
2022/06/17 09:00:42;;;;;;;6.13;4.20;;;20.40;99.90;;;;;;10481890;28;20024;-83
2022/06/17 09:05:56;;;;;;;5.10;4.03;;;21.00;99.90;;;;;;10461192;28;20036;-84
2022/06/17 09:10:59;;;;;;;5.10;4.15;;;21.30;99.90;;;;;;10483930;28;20052;-85
2022/06/17 09:16:18;;;;;;;4.47;3.88;;;21.00;98.80;;;;;;10470270;28;20025;-83
2022/06/17 09:21:37;;;;;;;6.45;4.47;;;20.40;99.90;;;;;;10471861;28;20079;-83
2022/06/17 09:26:44;;;;;;;8.55;3.97;;;21.20;99.90;;;;;;10491214;28;20028;-85
2022/06/17 09:31:49;;;;;;;5.10;3.42;;;22.00;99.90;;;;;;10460658;28;20024;-85
2022/06/17 09:37:01;;;;;;;3.47;3.17;;;22.30;95.80;;;;;;10492915;28;20459;-86
2022/06/17 09:42:10;;;;;;;5.38;3.17;;;21.30;94.00;;;;;;10479802;28;20122;-87
2022/06/17 09:47:34;;;;;;;4.90;2.92;;;20.70;95.00;;;;;;10485632;28;20025;-84
2022/06/17 09:52:41;;;;;;;5.80;2.58;;;20.60;96.60;;;;;;10454275;28;20021;-84
2022/06/17 09:58:08;;;;;;;5.95;3.35;;;21.20;96.30;;;;;;10471424;28;20031;-83
2022/06/17 10:03:23;;;;;;;3.00;2.70;;;21.30;93.30;;;;;;10476271;28;20029;-84
2022/06/17 10:08:46;;;;;;;4.93;2.72;;;20.90;91.90;;;;;;10482248;28;20098;-83
2022/06/17 10:14:06;;;;;;;3.88;3.10;;;20.90;93.00;;;;;;10480736;28;20034;-85
2022/06/17 10:19:34;;;;;;;3.60;2.50;;;22.00;93.10;;;;;;10480436;28;20023;-85
2022/06/17 10:24:35;;;;;;;3.60;2.10;;;22.00;90.30;;;;;;10481632;28;20064;-83
2022/06/17 10:29:57;;;;;;;4.50;2.00;;;22.20;89.80;;;;;;10484830;28;20026;-83
2022/06/17 10:35:01;;;;;;;2.40;1.73;;;22.20;85.60;;;;;;10485827;28;20117;-83
2022/06/17 10:40:05;;;;;;;1.95;1.85;;;22.30;87.10;;;;;;10493665;28;20024;-84
2022/06/17 10:45:14;;;;;;;3.53;1.80;;;22.70;85.00;;;;;;10489418;28;20036;-85
2022/06/17 10:50:18;;;;;;;1.83;1.40;;;22.10;82.20;;;;;;10465765;28;20017;-84
2022/06/17 10:55:31;;;;;;;1.92;0.85;;;22.10;80.40;;;;;;10464155;28;20025;-85
2022/06/17 11:00:34;;;;;;;1.27;1.15;;;22.50;78.20;;;;;;10482882;28;20032;-85
2022/06/17 11:05:35;;;;;;;2.30;1.20;;;22.70;75.80;;;;;;10472825;28;20127;-86
2022/06/17 11:10:35;;;;;;;1.77;1.00;;;22.80;81.40;;;;;;10484761;28;20757;-86
2022/06/17 11:15:44;;;;;;;3.47;0.60;;;22.80;77.30;;;;;;10468851;28;20016;-83
2022/06/17 11:21:21;;;;;;;1.20;0.80;;;22.90;73.70;;;;;;10443443;28;20122;-85
2022/06/17 11:26:27;;;;;;;0.60;0.60;;;23.20;80.80;;;;;;10473550;28;20467;-83
2022/06/17 11:31:27;;;;;;;2.00;0.80;;;23.10;75.00;;;;;;10475038;28;20025;-84
2022/06/17 11:36:33;;;;;;;2.25;0.70;;;22.80;77.10;;;;;;10480070;28;20476;-86
2022/06/17 11:41:34;;;;;;;1.02;0.90;;;23.20;77.50;;;;;;10490829;28;20703;-84
2022/06/17 11:46:35;;;;;;;3.35;0.77;;;23.50;75.70;;;;;;10493479;28;20016;-83
2022/06/17 11:52:00;;;;;;;2.97;1.42;;;23.90;75.70;;;;;;10487185;28;20040;-85
2022/06/17 11:57:24;;;;;;;;;;;24.70;74.70;;;;;;10477103;28;20021;-82
2022/06/17 12:02:26;;;;;;;2.15;0.90;;;24.50;72.00;;;;;;10470984;28;19916;-85
2022/06/17 12:07:49;;;;;;;2.28;1.10;;;24.80;74.10;;;;;;10462484;28;20020;-86
2022/06/17 12:12:53;;;;;;;1.98;1.20;;;24.80;72.20;;;;;;10482226;28;20028;-84
2022/06/17 12:17:57;;;;;;;2.78;0.90;;;24.10;73.10;;;;;;10483669;28;20021;-84
2022/06/17 12:23:06;;;;;;;1.05;1.00;;;24.20;72.40;;;;;;10462623;28;20127;-84
2022/06/17 12:28:19;;;;;;;3.08;1.40;;;23.20;73.60;;;;;;10473138;28;20083;-87
2022/06/17 12:33:43;;;;;;;4.63;1.38;;;23.20;74.70;;;;;;10470055;28;20021;-83
2022/06/17 12:39:01;;;;;;;3.88;0.90;;;23.40;74.50;;;;;;10475768;28;20032;-84
2022/06/17 12:44:26;;;;;;;3.08;0.98;;;23.70;74.10;;;;;;10480891;28;20119;-84
2022/06/17 12:55:32;;;;;;;1.98;0.90;;;25.00;74.80;;;;;;10478026;28;20025;-85
2022/06/17 13:00:38;;;;;;;1.75;1.13;;;25.40;72.20;;;;;;10472782;28;20031;-86
2022/06/17 13:05:46;;;;;;;1.83;1.05;;;25.50;71.10;;;;;;10475710;28;20367;-85
2022/06/17 13:10:47;;;;;;;1.45;1.13;;;25.00;69.20;;;;;;10467141;28;20483;-86
2022/06/17 13:15:58;;;;;;;4.43;1.30;;;24.00;71.90;;;;;;10470490;28;20028;-85
2022/06/17 13:21:05;;;;;;;8.23;1.33;;;23.60;74.30;;;;;;10465821;28;20449;-84
2022/06/17 13:26:14;;;;;;;1.35;0.93;;;23.20;73.20;;;;;;10466518;28;20031;-85
2022/06/17 13:31:21;;;;;;;1.23;1.10;;;22.50;73.50;;;;;;10478851;28;20104;-86
2022/06/17 13:36:27;;;;;;;1.40;1.30;;;22.10;75.00;;;;;;10470800;28;20017;-83
2022/06/17 13:41:34;;;;;;;3.53;1.48;;;22.00;77.00;;;;;;10481903;28;20071;-83
2022/06/17 13:46:45;;;;;;;2.78;1.10;;;22.20;75.70;;;;;;10486979;28;20074;-83
2022/06/17 13:52:13;;;;;;;1.98;1.02;;;22.50;77.80;;;;;;10459834;28;20105;-83
2022/06/17 13:57:36;;;;;;;2.08;1.10;;;22.50;76.00;;;;;;10465092;28;20021;-84
2022/06/17 14:03:00;;;;;;;2.25;1.20;;;22.50;77.40;;;;;;10475023;28;20039;-83
2022/06/17 14:08:11;;;;;;;1.55;1.10;;;22.20;77.30;;;;;;10475404;28;20376;-84
2022/06/17 14:13:32;;;;;;;1.95;1.42;;;22.00;78.00;;;;;;10474636;28;20035;-84
2022/06/17 14:18:45;;;;;;;1.80;1.33;;;22.50;78.80;;;;;;10479013;28;20159;-83
2022/06/17 14:23:47;;;;;;;2.50;1.40;;;23.30;76.60;;;;;;10471687;28;20032;-82
2022/06/17 14:28:48;;;;;;;3.10;1.50;;;23.80;76.30;;;;;;10488592;28;20040;-83
2022/06/17 14:33:54;;;;;;;2.33;1.40;;;23.90;75.60;;;;;;10470315;28;20490;-84
2022/06/17 14:39:01;;;;;;;2.97;1.63;;;23.40;75.20;;;;;;10465022;28;20043;-83
2022/06/17 14:44:16;;;;;;;3.40;1.48;;;23.00;75.70;;;;;;10477171;28;20085;-83
2022/06/17 14:49:41;;;;;;;3.23;1.30;;;22.30;75.30;;;;;;10480608;28;20099;-83
2022/06/17 14:54:42;;;;;;;1.52;1.42;;;21.90;76.70;;;;;;10449674;28;20029;-82
2022/06/17 14:59:43;;;;;;;2.92;1.48;;;21.70;79.60;;;;;;10463039;28;20419;-83
2022/06/17 15:04:54;;;;;;;2.47;1.70;;;21.90;79.60;;;;;;10450458;28;20033;-82
2022/06/17 15:10:03;;;;;;;1.70;1.48;;;22.00;78.50;;;;;;10462710;28;20037;-83
2022/06/17 15:15:13;;;;;;;3.75;1.63;;;21.60;79.60;;;;;;10464670;28;20025;-83
2022/06/17 15:20:20;;;;;;;2.22;1.50;;;21.20;79.90;;;;;;10448114;28;20420;-83
2022/06/17 15:25:59;;;;;;;3.38;1.80;;;21.00;82.20;;;;;;10449342;28;20048;-83
2022/06/17 15:31:07;;;;;;;2.78;1.50;;;21.30;81.80;;;;;;10447311;28;20037;-82
2022/06/17 15:36:31;;;;;;;4.47;1.77;;;21.40;81.80;;;;;;10449324;28;20461;-83
2022/06/17 15:41:36;;;;;;;2.90;1.57;;;21.40;80.00;;;;;;10449277;28;20043;-83
2022/06/17 15:46:39;;;;;;;2.77;1.43;;;21.20;82.00;;;;;;10477547;28;20821;-83
2022/06/17 15:51:45;;;;;;;2.92;1.88;;;21.00;82.80;;;;;;10448492;28;20517;-83
2022/06/17 15:56:50;;;;;;;3.53;1.60;;;20.70;84.20;;;;;;10448810;28;20021;-83
2022/06/17 16:02:19;;;;;;;2.90;1.73;;;20.60;85.90;;;;;;10448850;28;20033;-82
2022/06/17 16:07:26;;;;;;;2.90;1.90;;;20.60;85.90;;;;;;10447981;28;20037;-83
2022/06/17 16:12:26;;;;;;;4.28;1.90;;;20.70;86.40;;;;;;10461400;28;20017;-83
2022/06/17 16:17:33;;;;;;;1.70;1.60;;;20.90;84.90;;;;;;10447282;28;20460;-83
2022/06/17 16:22:36;;;;;;;2.70;1.70;;;21.10;85.70;;;;;;10446927;28;20452;-81
2022/06/17 16:27:48;;;;;;;3.65;2.00;;;21.20;81.90;;;;;;10469657;28;20042;-82
2022/06/17 16:33:05;;;;;;;2.63;1.70;;;21.20;79.50;;;;;;10466090;28;20454;-81
2022/06/17 16:38:17;;;;;;;3.72;2.15;;;21.00;81.00;;;;;;10446929;28;20021;-83
2022/06/17 16:48:59;;;;;;;3.63;1.90;;;20.90;82.50;;;;;;10482166;28;20024;-82
2022/06/17 16:54:09;;;;;;;2.22;1.15;;;20.90;81.50;;;;;;10456316;28;20032;-84
2022/06/17 16:59:11;;;;;;;2.50;1.65;;;20.90;81.00;;;;;;10446895;28;20021;-86
2022/06/17 17:04:12;;;;;;;2.83;1.50;;;20.90;79.90;;;;;;10445707;28;20037;-83
2022/06/17 17:09:13;;;;;;;3.20;1.67;;;20.80;80.50;;;;;;10454968;28;20488;-83
2022/06/17 17:14:14;;;;;;;5.82;1.73;;;20.70;80.80;;;;;;10449394;28;20055;-83
2022/06/17 17:19:14;;;;;;;1.77;1.60;;;20.60;81.50;;;;;;10465615;28;20029;-83
2022/06/17 17:24:21;;;;;;;3.75;1.60;;;20.50;82.70;;;;;;10453222;28;20029;-83
2022/06/17 17:29:24;;;;;;;3.05;1.80;;;20.50;83.20;;;;;;10457716;28;20467;-83
2022/06/17 17:34:24;;;;;;;2.60;1.60;;;20.40;83.70;;;;;;10466113;28;20031;-82
2022/06/17 17:39:25;;;;;;;3.05;1.85;;;20.20;87.50;;;;;;10468614;28;20590;-82
2022/06/17 17:44:26;;;;;;;2.97;1.85;;;19.90;88.30;;;;;;10442104;28;20037;-85
2022/06/17 17:49:27;;;;;;;2.47;1.77;;;19.60;90.30;;;;;;10455480;28;20104;-84
2022/06/17 17:54:28;;;;;;;2.80;2.00;;;19.40;89.10;;;;;;10478450;28;20017;-83
2022/06/17 17:59:30;;;;;;;4.00;2.20;;;19.30;90.20;;;;;;10477246;28;20029;-82
2022/06/17 18:04:30;;;;;;;2.83;1.90;;;19.20;90.30;;;;;;10487250;28;20033;-82
2022/06/17 18:09:31;;;;;;;5.40;1.92;;;19.10;89.00;;;;;;10479593;28;20060;-82
2022/06/17 18:14:34;;;;;;;3.08;2.15;;;19.10;89.60;;;;;;10482484;28;20059;-83
2022/06/17 18:19:34;;;;;;;2.42;2.20;;;18.90;89.20;;;;;;10480264;28;20036;-82
2022/06/17 18:24:35;;;;;;;5.28;2.45;;;18.60;91.10;;;;;;10488203;28;20033;-81
2022/06/17 18:29:36;;;;;;;3.60;2.25;;;18.00;92.30;;;;;;10455248;28;20032;-82
2022/06/17 18:34:40;;;;;;;5.15;2.63;;;17.60;93.60;;;;;;10474114;28;20028;-83
2022/06/17 18:39:41;;;;;;;4.13;2.75;;;17.20;94.70;;;;;;10460100;28;20021;-83
2022/06/17 18:44:42;;;;;;;2.90;2.33;;;16.90;96.80;;;;;;10470136;28;20526;-82
2022/06/17 18:49:45;;;;;;;4.97;2.83;;;16.60;98.00;;;;;;10472669;28;20029;-84
2022/06/17 18:54:46;;;;;;;2.88;2.40;;;16.40;99.90;;;;;;10469035;28;20016;-83
2022/06/17 18:59:48;;;;;;;3.88;2.67;;;16.30;99.90;;;;;;10476625;28;20032;-85
2022/06/17 19:04:51;;;;;;;3.30;2.70;;;16.10;99.90;;;;;;10469792;28;20044;-82
2022/06/17 19:20:32;;;;;;;5.15;3.17;;;15.70;99.90;;;;;;10467929;28;20034;-83
2022/06/17 19:25:33;;;;;;;6.70;3.20;;;15.50;99.90;;;;;;10455201;28;20737;-83
2022/06/17 19:30:36;;;;;;;4.35;3.10;;;15.40;99.90;;;;;;10474578;28;20046;-83
2022/06/17 19:35:50;;;;;;;8.52;3.25;;;15.40;99.90;;;;;;10462549;28;20136;-86
2022/06/17 19:46:15;;;;;;;3.78;2.67;;;15.20;99.90;;;;;;10469099;28;20057;-81
2022/06/17 19:51:16;;;;;;;;;;;15.10;99.90;;;;;;10451761;28;20119;-83
2022/06/17 19:56:37;;;;;;;4.30;2.95;;;15.10;99.90;;;;;;10473953;28;19908;-85
2022/06/17 20:01:41;;;;;;;6.97;3.60;;;15.10;99.90;;;;;;10468232;28;20058;-83
2022/06/17 20:06:43;;;;;;;5.80;3.50;;;15.20;99.90;;;;;;10470428;28;20371;-83
2022/06/17 20:11:44;;;;;;;8.07;3.92;;;15.20;99.90;;;;;;10459595;28;20053;-83
2022/06/17 20:16:46;;;;;;;7.18;4.40;;;15.00;99.90;;;;;;10468826;28;20526;-86
2022/06/17 20:21:48;;;;;;;11.20;4.00;;;14.90;99.90;;;;;;10467342;28;20036;-82
2022/06/17 20:26:49;;;;;;;10.23;4.70;;;14.80;99.90;;;;;;10467879;28;20608;-82
2022/06/17 20:31:52;;;;;;;10.13;5.13;;;14.80;99.90;;;;;;10460831;28;20016;-84
2022/06/17 20:36:54;;;;;;;6.00;4.38;;;14.70;99.90;;;;;;10475281;28;20135;-83
2022/06/17 20:42:00;;;;;;;6.95;3.95;;;14.70;99.90;;;;;;10478583;28;20033;-83
2022/06/17 20:52:20;;;;;;;6.10;4.65;;;14.70;99.90;;;;;;10465689;28;20372;-83
2022/06/17 21:02:42;;;;;;;6.95;3.97;;;14.70;99.90;;;;;;10466238;28;20075;-82
2022/06/17 21:07:47;;;;;;;5.10;3.30;;;14.60;99.90;;;;;;10459652;28;20041;-81
2022/06/17 21:12:48;;;;;;;4.90;3.60;;;14.60;99.90;;;;;;10469158;28;20049;-83
2022/06/17 21:17:49;;;;;;;5.15;3.50;;;14.50;99.90;;;;;;10471532;28;20058;-81
2022/06/17 21:22:51;;;;;;;4.47;3.47;;;14.50;99.90;;;;;;10465603;28;20089;-83
2022/06/17 21:27:53;;;;;;;4.10;3.55;;;14.40;99.90;;;;;;10476195;28;20067;-83
2022/06/17 21:32:54;;;;;;;5.38;3.50;;;14.40;99.90;;;;;;10472570;28;20045;-82
2022/06/17 21:38:03;;;;;;;5.45;3.63;;;14.30;99.90;;;;;;10477331;28;20103;-82
2022/06/17 21:43:20;;;;;;;7.80;4.68;;;14.20;99.90;;;;;;10463091;28;20495;-82
2022/06/17 21:48:21;;;;;;;11.25;4.68;;;14.10;99.90;;;;;;10481089;28;20431;-83
2022/06/17 21:53:28;;;;;;;4.93;3.88;;;14.10;99.90;;;;;;10475491;28;20041;-85
2022/06/17 21:58:35;;;;;;;5.93;3.92;;;14.10;99.90;;;;;;10480691;28;20064;-86
2022/06/17 22:03:36;;;;;;;6.30;3.90;;;14.10;99.90;;;;;;10479785;28;20035;-88
2022/06/17 22:08:44;;;;;;;6.28;3.85;;;14.00;99.90;;;;;;10468631;28;20041;-84
2022/06/17 22:13:44;;;;;;;5.40;3.88;;;14.00;99.90;;;;;;10478778;28;20087;-86
2022/06/17 22:18:45;;;;;;;5.22;3.83;;;13.90;99.90;;;;;;10460767;28;20108;-85
2022/06/17 22:23:46;;;;;;;58.30;39.42;;;13.90;99.90;;;;;;10453819;28;20371;-83
2022/06/17 22:28:50;;;;;;;110.80;91.70;;;13.90;99.90;;;;;;10467466;28;20044;-84
2022/06/17 22:33:50;;;;;;;9.02;5.22;;;13.80;99.90;;;;;;10483835;28;20444;-86
2022/06/17 22:38:51;;;;;;;9.95;5.25;;;13.80;99.90;;;;;;10489097;28;20036;-83
2022/06/17 22:43:52;;;;;;;6.60;5.60;;;13.80;99.90;;;;;;10472051;28;20491;-83
2022/06/17 22:48:54;;;;;;;7.68;5.60;;;13.70;99.90;;;;;;10478065;28;20541;-84
2022/06/17 22:53:55;;;;;;;10.32;6.90;;;13.60;99.90;;;;;;10480713;28;20422;-83
2022/06/17 22:58:56;;;;;;;9.73;5.82;;;13.30;99.90;;;;;;10467599;28;20078;-83
2022/06/17 23:09:18;;;;;;;11.75;7.40;;;13.20;99.90;;;;;;10467398;28;20522;-83
2022/06/17 23:14:19;;;;;;;12.00;7.75;;;13.30;99.90;;;;;;10447356;28;20051;-86
2022/06/17 23:24:44;;;;;;;14.38;6.82;;;13.10;99.90;;;;;;10471528;28;20044;-83
2022/06/17 23:29:46;;;;;;;11.57;7.60;;;13.00;99.90;;;;;;10477729;28;20029;-84
2022/06/17 23:34:51;;;;;;;20.98;11.02;;;12.90;99.90;;;;;;10481254;28;20033;-86
2022/06/17 23:39:52;;;;;;;26.90;14.07;;;12.90;99.90;;;;;;10469252;28;20028;-84
2022/06/17 23:44:53;;;;;;;23.27;14.30;;;12.90;99.90;;;;;;10468753;28;20525;-84
2022/06/17 23:49:54;;;;;;;30.00;13.93;;;12.80;99.90;;;;;;10462470;28;20048;-85
2022/06/17 23:54:55;;;;;;;24.92;13.77;;;12.80;99.90;;;;;;10467221;28;20790;-86
2022/06/17 23:59:56;;;;;;;26.02;17.42;;;12.80;99.90;;;;;;10467405;28;20025;-88
